Time;durP1;ratioP1;P1;durP2;ratioP2;P2;SDS_P1;SDS_P2;PMS_P1;PMS_P2;Temp;Humidity;BMP_temperature;BMP_pressure;BME280_temperature;BME280_humidity;BME280_pressure;Samples;Min_cycle;Max_cycle;Signal;HPM_P1;HPM_P2
2021/06/06 00:00:49;;;;;;;8.95;3.38;;;;;;;;;;5029040;28;20544;-75
2021/06/06 00:03:18;;;;;;;5.68;3.20;;;;;;;;;;5020929;28;20030;-75
2021/06/06 00:05:58;;;;;;;9.90;3.33;;;;;;;;;;5030900;28;20103;-74
2021/06/06 00:08:25;;;;;;;5.05;3.50;;;;;;;;;;5032695;28;20030;-76
2021/06/06 00:10:53;;;;;;;5.53;3.30;;;;;;;;;;5050330;28;20498;-73
2021/06/06 00:13:20;;;;;;;6.18;3.50;;;;;;;;;;5039279;28;20033;-75
2021/06/06 00:15:46;;;;;;;5.50;3.33;;;;;;;;;;5032089;28;20026;-77
2021/06/06 00:18:13;;;;;;;8.20;3.30;;;;;;;;;;5031605;28;20028;-75
2021/06/06 00:20:39;;;;;;;9.20;3.55;;;;;;;;;;5027841;28;20021;-76
2021/06/06 00:23:06;;;;;;;4.50;3.20;;;;;;;;;;5030877;28;20083;-74
2021/06/06 00:25:32;;;;;;;7.40;3.45;;;;;;;;;;5029102;28;20484;-76
2021/06/06 00:27:59;;;;;;;8.13;3.33;;;;;;;;;;5032132;28;20026;-76
2021/06/06 00:30:25;;;;;;;7.07;3.70;;;;;;;;;;5031255;28;20055;-75
2021/06/06 00:32:51;;;;;;;6.10;3.47;;;;;;;;;;5029755;28;20044;-76
2021/06/06 00:35:18;;;;;;;6.82;3.70;;;;;;;;;;5029967;28;20022;-76
2021/06/06 00:37:44;;;;;;;5.93;3.50;;;;;;;;;;5029018;28;20112;-76
2021/06/06 00:40:14;;;;;;;5.15;3.33;;;;;;;;;;5021657;28;20032;-75
2021/06/06 00:42:40;;;;;;;10.07;3.53;;;;;;;;;;5033157;28;20037;-76
2021/06/06 00:45:11;;;;;;;5.70;3.42;;;;;;;;;;5032211;28;20038;-76
2021/06/06 00:47:37;;;;;;;7.47;3.42;;;;;;;;;;5026194;28;20097;-75
2021/06/06 00:50:07;;;;;;;11.20;3.28;;;;;;;;;;5031764;28;20179;-77
2021/06/06 00:52:34;;;;;;;7.40;3.42;;;;;;;;;;5033008;28;20026;-74
2021/06/06 00:55:00;;;;;;;4.57;3.30;;;;;;;;;;5032099;28;20112;-76
2021/06/06 00:57:27;;;;;;;5.25;3.28;;;;;;;;;;5031096;28;20032;-75
2021/06/06 00:59:59;;;;;;;6.85;3.80;;;;;;;;;;5032709;28;20122;-75
2021/06/06 01:02:25;;;;;;;5.63;3.58;;;;;;;;;;5053721;28;20037;-76
2021/06/06 01:04:51;;;;;;;8.05;3.40;;;;;;;;;;5028807;28;20087;-76
2021/06/06 01:07:17;;;;;;;5.18;3.15;;;;;;;;;;5030389;28;20034;-76
2021/06/06 01:09:43;;;;;;;10.02;3.53;;;;;;;;;;5032414;28;20021;-76
2021/06/06 01:12:15;;;;;;;6.18;3.30;;;;;;;;;;5023510;28;20038;-76
2021/06/06 01:14:44;;;;;;;8.27;3.13;;;;;;;;;;5017647;28;20108;-74
2021/06/06 01:17:10;;;;;;;6.05;3.50;;;;;;;;;;5031314;28;20557;-76
2021/06/06 01:19:43;;;;;;;10.82;3.70;;;;;;;;;;5030564;28;20095;-76
2021/06/06 01:22:13;;;;;;;9.02;3.92;;;;;;;;;;5025781;28;20100;-75
2021/06/06 01:24:44;;;;;;;6.90;3.70;;;;;;;;;;5027982;28;20037;-75
2021/06/06 01:27:28;;;;;;;8.98;3.53;;;;;;;;;;5031094;28;20037;-75
2021/06/06 01:30:02;;;;;;;4.78;3.58;;;;;;;;;;5031075;28;20088;-76
2021/06/06 01:32:30;;;;;;;5.53;3.30;;;;;;;;;;5016751;28;20034;-75
2021/06/06 01:34:59;;;;;;;5.43;3.40;;;;;;;;;;5021418;28;20467;-76
2021/06/06 01:37:26;;;;;;;5.55;3.60;;;;;;;;;;5028304;28;20033;-77
2021/06/06 01:40:00;;;;;;;4.13;3.03;;;;;;;;;;5030550;28;20386;-76
2021/06/06 01:42:31;;;;;;;6.70;3.28;;;;;;;;;;5023164;28;20033;-76
2021/06/06 01:45:00;;;;;;;7.65;3.47;;;;;;;;;;5018492;28;20030;-75
2021/06/06 01:47:27;;;;;;;5.75;3.30;;;;;;;;;;5028692;28;20033;-75
2021/06/06 01:49:57;;;;;;;5.20;3.10;;;;;;;;;;5022779;28;20068;-74
2021/06/06 01:52:24;;;;;;;7.57;3.25;;;;;;;;;;5031298;28;20017;-76
2021/06/06 01:54:51;;;;;;;5.68;3.10;;;;;;;;;;5043280;28;20053;-76
2021/06/06 01:57:19;;;;;;;6.60;3.25;;;;;;;;;;5031573;28;20022;-75
2021/06/06 01:59:47;;;;;;;8.10;3.70;;;;;;;;;;5031911;28;20022;-76
2021/06/06 02:02:14;;;;;;;8.68;3.70;;;;;;;;;;5031861;28;20391;-81
2021/06/06 02:04:40;;;;;;;5.35;3.17;;;;;;;;;;5032230;28;20530;-76
2021/06/06 02:07:12;;;;;;;4.85;3.35;;;;;;;;;;5030698;28;20037;-75
2021/06/06 02:09:42;;;;;;;6.55;3.38;;;;;;;;;;5031591;28;20151;-75
2021/06/06 02:12:08;;;;;;;6.47;3.28;;;;;;;;;;5019258;28;20041;-76
2021/06/06 02:14:36;;;;;;;6.60;3.20;;;;;;;;;;5020083;28;20028;-76
2021/06/06 02:17:04;;;;;;;8.95;3.40;;;;;;;;;;5041884;28;20461;-74
2021/06/06 02:19:31;;;;;;;6.72;3.20;;;;;;;;;;5030542;28;20379;-75
2021/06/06 02:21:59;;;;;;;5.97;3.63;;;;;;;;;;5028709;28;20033;-75
2021/06/06 02:24:26;;;;;;;7.43;3.20;;;;;;;;;;5031461;28;20048;-74
2021/06/06 02:27:18;;;;;;;5.63;3.53;;;;;;;;;;5029753;28;20029;-75
2021/06/06 02:30:03;;;;;;;7.43;3.40;;;;;;;;;;5016687;28;20037;-78
2021/06/06 02:32:55;;;;;;;5.10;3.60;;;;;;;;;;5033992;28;20029;-76
2021/06/06 02:35:21;;;;;;;6.07;3.40;;;;;;;;;;5030290;28;20038;-77
2021/06/06 02:37:55;;;;;;;8.00;3.53;;;;;;;;;;5030806;28;20026;-75
2021/06/06 02:40:28;;;;;;;6.95;3.35;;;;;;;;;;5023666;28;20398;-75
2021/06/06 02:42:56;;;;;;;7.60;4.03;;;;;;;;;;5030719;28;20025;-77
2021/06/06 02:45:27;;;;;;;5.45;3.47;;;;;;;;;;5039170;28;20415;-76
2021/06/06 02:47:54;;;;;;;6.63;3.28;;;;;;;;;;5031768;28;20482;-76
2021/06/06 02:50:26;;;;;;;10.93;4.45;;;;;;;;;;5031472;28;20064;-76
2021/06/06 02:52:55;;;;;;;8.18;3.78;;;;;;;;;;5030082;28;20022;-77
2021/06/06 02:55:27;;;;;;;7.85;3.50;;;;;;;;;;5039806;28;20025;-76
2021/06/06 02:57:55;;;;;;;7.68;3.42;;;;;;;;;;5030294;28;20118;-74
2021/06/06 03:00:24;;;;;;;7.65;3.50;;;;;;;;;;5030080;28;20034;-77
2021/06/06 03:02:54;;;;;;;6.15;3.50;;;;;;;;;;5028549;28;20022;-77
2021/06/06 03:05:22;;;;;;;5.70;3.47;;;;;;;;;;5028970;28;20034;-78
2021/06/06 03:07:51;;;;;;;6.25;3.25;;;;;;;;;;5019774;28;20018;-75
2021/06/06 03:10:19;;;;;;;8.70;3.40;;;;;;;;;;5026234;28;20029;-76
2021/06/06 03:12:46;;;;;;;8.27;3.60;;;;;;;;;;5033070;28;20113;-78
2021/06/06 03:15:13;;;;;;;6.43;3.50;;;;;;;;;;5038300;28;20025;-76
2021/06/06 03:17:44;;;;;;;4.70;3.20;;;;;;;;;;5031766;28;20036;-75
2021/06/06 03:20:19;;;;;;;10.65;3.97;;;;;;;;;;5033014;28;20476;-76
2021/06/06 03:22:49;;;;;;;8.25;3.40;;;;;;;;;;5035140;28;20312;-76
2021/06/06 03:25:37;;;;;;;9.45;3.38;;;;;;;;;;5028481;28;20037;-74
2021/06/06 03:28:04;;;;;;;5.53;3.28;;;;;;;;;;5017947;28;20132;-76
2021/06/06 03:30:33;;;;;;;5.82;3.20;;;;;;;;;;5029196;28;20041;-77
2021/06/06 03:33:03;;;;;;;4.50;3.22;;;;;;;;;;5030660;28;20022;-75
2021/06/06 03:35:29;;;;;;;7.32;3.50;;;;;;;;;;5031824;28;20067;-75
2021/06/06 03:37:55;;;;;;;6.88;3.55;;;;;;;;;;5031752;28;20021;-76
2021/06/06 03:40:23;;;;;;;6.53;3.65;;;;;;;;;;5031925;28;20021;-75
2021/06/06 03:42:49;;;;;;;4.68;3.10;;;;;;;;;;5033745;28;20029;-76
2021/06/06 03:45:16;;;;;;;5.28;3.20;;;;;;;;;;5035544;28;20482;-78
2021/06/06 03:47:42;;;;;;;3.95;2.80;;;;;;;;;;5024848;28;20079;-78
2021/06/06 03:50:10;;;;;;;8.25;3.17;;;;;;;;;;5033749;28;20039;-77
2021/06/06 03:52:36;;;;;;;6.32;3.35;;;;;;;;;;5034226;28;20061;-75
2021/06/06 03:55:04;;;;;;;6.95;3.17;;;;;;;;;;5034267;28;20021;-76
2021/06/06 03:57:32;;;;;;;6.65;3.17;;;;;;;;;;5030829;28;20052;-76
2021/06/06 03:59:58;;;;;;;6.80;3.35;;;;;;;;;;5025676;28;20029;-76
2021/06/06 04:02:24;;;;;;;6.53;3.17;;;;;;;;;;5033058;28;20482;-76
2021/06/06 04:04:50;;;;;;;3.67;2.90;;;;;;;;;;5029320;28;20022;-75
2021/06/06 04:07:16;;;;;;;4.82;3.17;;;;;;;;;;5025940;28;20022;-77
2021/06/06 04:09:42;;;;;;;7.78;3.30;;;;;;;;;;5032439;28;20105;-76
2021/06/06 04:12:09;;;;;;;6.82;3.58;;;;;;;;;;5026591;28;20018;-76
2021/06/06 04:14:35;;;;;;;5.10;3.25;;;;;;;;;;5025596;28;21756;-76
2021/06/06 04:17:01;;;;;;;6.95;3.33;;;;;;;;;;5026809;28;20021;-76
2021/06/06 04:19:27;;;;;;;6.47;3.95;;;;;;;;;;5023450;28;20028;-76
2021/06/06 04:21:53;;;;;;;8.77;4.28;;;;;;;;;;5023418;28;20079;-76
2021/06/06 04:24:19;;;;;;;7.07;4.95;;;;;;;;;;5020509;28;20022;-76
2021/06/06 04:26:45;;;;;;;9.80;5.15;;;;;;;;;;5016888;28;20518;-74
2021/06/06 04:29:12;;;;;;;10.75;5.40;;;;;;;;;;5018776;28;20049;-74
2021/06/06 04:31:38;;;;;;;9.27;5.35;;;;;;;;;;5020568;28;20032;-75
2021/06/06 04:34:04;;;;;;;14.07;5.97;;;;;;;;;;5024516;28;20030;-75
2021/06/06 04:36:30;;;;;;;11.13;5.97;;;;;;;;;;5023449;28;20039;-74
2021/06/06 04:38:57;;;;;;;8.25;5.88;;;;;;;;;;5017635;28;20078;-75
2021/06/06 04:41:23;;;;;;;10.60;6.15;;;;;;;;;;5018235;28;20088;-75
2021/06/06 04:43:49;;;;;;;9.75;6.07;;;;;;;;;;5022634;28;20072;-74
2021/06/06 04:46:16;;;;;;;15.20;6.10;;;;;;;;;;5026683;28;20033;-75
2021/06/06 04:48:43;;;;;;;10.98;5.72;;;;;;;;;;5032998;28;20032;-75
2021/06/06 04:51:11;;;;;;;9.77;5.45;;;;;;;;;;5030057;28;20080;-75
2021/06/06 04:53:38;;;;;;;15.52;6.43;;;;;;;;;;5032479;28;20100;-75
2021/06/06 04:56:04;;;;;;;10.02;5.60;;;;;;;;;;5032594;28;20068;-75
2021/06/06 04:58:31;;;;;;;11.07;5.65;;;;;;;;;;5032915;28;20026;-77
2021/06/06 05:00:58;;;;;;;10.73;5.40;;;;;;;;;;5030431;28;20030;-76
2021/06/06 05:03:24;;;;;;;9.82;5.82;;;;;;;;;;5027984;28;20148;-75
2021/06/06 05:05:50;;;;;;;8.43;5.22;;;;;;;;;;5032475;28;20029;-75
2021/06/06 05:08:18;;;;;;;8.98;5.05;;;;;;;;;;5030332;28;20025;-76
2021/06/06 05:10:45;;;;;;;7.70;5.30;;;;;;;;;;5039895;28;20048;-77
2021/06/06 05:13:12;;;;;;;10.27;4.93;;;;;;;;;;5032827;28;20013;-83
2021/06/06 05:15:38;;;;;;;11.18;5.13;;;;;;;;;;5034724;28;20068;-88
2021/06/06 05:18:05;;;;;;;15.68;6.05;;;;;;;;;;5030657;28;20029;-86
2021/06/06 05:20:32;;;;;;;10.35;5.45;;;;;;;;;;5028503;28;20030;-76
2021/06/06 05:22:59;;;;;;;13.07;5.57;;;;;;;;;;5028542;28;20024;-76
2021/06/06 05:25:26;;;;;;;9.93;5.75;;;;;;;;;;5029401;28;20052;-75
2021/06/06 05:27:52;;;;;;;10.38;5.28;;;;;;;;;;5031828;28;20052;-77
2021/06/06 05:30:21;;;;;;;9.50;5.50;;;;;;;;;;5031405;28;20084;-75
2021/06/06 05:32:51;;;;;;;13.10;5.50;;;;;;;;;;5030457;28;20022;-76
2021/06/06 05:35:17;;;;;;;9.45;5.00;;;;;;;;;;5031106;28;20032;-75
2021/06/06 05:37:43;;;;;;;8.85;5.05;;;;;;;;;;5030854;28;20025;-80
2021/06/06 05:40:10;;;;;;;11.90;5.22;;;;;;;;;;5029890;28;20051;-72
2021/06/06 05:42:36;;;;;;;15.55;5.30;;;;;;;;;;5030747;28;20025;-73
2021/06/06 05:45:03;;;;;;;9.52;5.10;;;;;;;;;;5030702;28;20029;-77
2021/06/06 05:47:29;;;;;;;7.97;4.63;;;;;;;;;;5029475;28;20525;-77
2021/06/06 05:49:55;;;;;;;9.07;5.00;;;;;;;;;;5029555;28;20495;-75
2021/06/06 05:52:21;;;;;;;8.55;5.28;;;;;;;;;;5030200;28;20037;-71
2021/06/06 05:54:47;;;;;;;10.27;5.22;;;;;;;;;;5026025;28;20082;-77
2021/06/06 05:57:13;;;;;;;11.32;5.57;;;;;;;;;;5028090;28;20037;-75
2021/06/06 05:59:39;;;;;;;9.10;5.57;;;;;;;;;;5030614;28;20025;-75
2021/06/06 06:02:06;;;;;;;10.15;5.55;;;;;;;;;;5030194;28;20038;-75
2021/06/06 06:04:32;;;;;;;7.45;5.20;;;;;;;;;;5035593;28;20147;-75
2021/06/06 06:06:58;;;;;;;10.43;5.32;;;;;;;;;;5027106;28;20410;-75
2021/06/06 06:09:24;;;;;;;11.18;4.93;;;;;;;;;;5025501;28;20026;-75
2021/06/06 06:11:50;;;;;;;10.10;5.30;;;;;;;;;;5025852;28;20028;-75
2021/06/06 06:14:16;;;;;;;10.40;4.85;;;;;;;;;;5028694;28;20026;-77
2021/06/06 06:16:43;;;;;;;8.05;4.90;;;;;;;;;;5030388;28;20103;-75
2021/06/06 06:19:12;;;;;;;5.80;4.57;;;;;;;;;;5027534;28;20129;-77
2021/06/06 06:21:39;;;;;;;9.38;4.90;;;;;;;;;;5042593;28;20036;-78
2021/06/06 06:24:06;;;;;;;8.50;4.13;;;;;;;;;;5032489;28;20072;-78
2021/06/06 06:26:32;;;;;;;10.55;4.65;;;;;;;;;;5027368;28;20029;-86
2021/06/06 06:28:59;;;;;;;9.20;4.40;;;;;;;;;;5026264;28;20037;-83
2021/06/06 06:31:25;;;;;;;7.57;4.32;;;;;;;;;;5027393;28;20308;-92
2021/06/06 06:33:52;;;;;;;8.95;4.53;;;;;;;;;;5030946;28;20029;-80
2021/06/06 06:36:19;;;;;;;6.38;4.45;;;;;;;;;;5029015;28;20479;-81
2021/06/06 06:38:46;;;;;;;9.60;4.80;;;;;;;;;;5030922;28;20060;-78
2021/06/06 06:41:12;;;;;;;11.70;4.85;;;;;;;;;;5035633;28;20021;-78
2021/06/06 06:43:38;;;;;;;10.70;4.82;;;;;;;;;;5025499;28;20099;-78
2021/06/06 06:46:05;;;;;;;9.23;4.70;;;;;;;;;;5030579;28;20041;-76
2021/06/06 06:48:31;;;;;;;7.35;4.35;;;;;;;;;;5032922;28;20033;-78
2021/06/06 06:51:00;;;;;;;9.02;4.82;;;;;;;;;;5034051;28;20039;-84
2021/06/06 06:53:26;;;;;;;7.18;4.22;;;;;;;;;;5034901;28;20020;-84
2021/06/06 06:55:52;;;;;;;9.80;4.68;;;;;;;;;;5048462;28;20047;-78
2021/06/06 06:58:19;;;;;;;7.80;4.80;;;;;;;;;;5033462;28;20021;-78
2021/06/06 07:00:46;;;;;;;10.55;4.50;;;;;;;;;;5031073;28;20033;-78
2021/06/06 07:03:14;;;;;;;7.97;4.53;;;;;;;;;;5034663;28;20052;-75
2021/06/06 07:05:41;;;;;;;13.30;5.68;;;;;;;;;;5035887;28;20029;-86
2021/06/06 07:08:09;;;;;;;8.52;5.70;;;;;;;;;;5030981;28;20104;-82
2021/06/06 07:10:36;;;;;;;16.10;5.72;;;;;;;;;;5031234;28;20036;-77
2021/06/06 07:13:02;;;;;;;11.60;5.25;;;;;;;;;;5036580;28;20470;-69
2021/06/06 07:15:29;;;;;;;15.13;7.80;;;;;;;;;;5034151;28;20060;-70
2021/06/06 07:17:55;;;;;;;9.60;6.05;;;;;;;;;;5034085;28;20105;-75
2021/06/06 07:20:25;;;;;;;16.25;6.82;;;;;;;;;;5045261;28;20039;-92
2021/06/06 07:22:52;;;;;;;11.65;5.78;;;;;;;;;;5032781;28;20107;-77
2021/06/06 07:25:19;;;;;;;13.95;6.30;;;;;;;;;;5031910;28;20068;-77
2021/06/06 07:27:47;;;;;;;11.75;5.07;;;;;;;;;;5032488;28;20022;-80
2021/06/06 07:30:16;;;;;;;11.68;4.57;;;;;;;;;;5031237;28;20065;-80
2021/06/06 07:32:42;;;;;;;15.93;4.80;;;;;;;;;;5033483;28;20029;-76
2021/06/06 07:35:09;;;;;;;13.95;4.65;;;;;;;;;;5031612;28;20049;-79
2021/06/06 07:37:35;;;;;;;5.93;3.58;;;;;;;;;;5023905;28;20072;-82
2021/06/06 07:40:01;;;;;;;8.10;4.32;;;;;;;;;;5034602;28;20022;-79
2021/06/06 07:42:27;;;;;;;7.68;4.38;;;;;;;;;;5033386;28;20030;-78
2021/06/06 07:44:53;;;;;;;9.27;5.13;;;;;;;;;;5029867;28;20021;-77
2021/06/06 07:47:19;;;;;;;13.77;5.32;;;;;;;;;;5025347;28;20044;-80
2021/06/06 07:49:45;;;;;;;10.25;4.65;;;;;;;;;;5028066;28;20096;-79
2021/06/06 07:52:12;;;;;;;8.50;4.63;;;;;;;;;;5023853;28;20029;-77
2021/06/06 07:54:38;;;;;;;7.40;4.70;;;;;;;;;;5021620;28;20396;-77
2021/06/06 07:57:04;;;;;;;9.90;4.30;;;;;;;;;;5023889;28;20048;-75
2021/06/06 07:59:33;;;;;;;8.98;5.32;;;;;;;;;;5020822;28;20441;-77
2021/06/06 08:01:59;;;;;;;6.88;4.55;;;;;;;;;;5020273;28;20408;-76
2021/06/06 08:04:26;;;;;;;11.48;4.70;;;;;;;;;;5027023;28;20394;-84
2021/06/06 08:06:53;;;;;;;7.78;3.97;;;;;;;;;;5019047;28;20038;-85
2021/06/06 08:09:19;;;;;;;9.45;4.70;;;;;;;;;;5026760;28;20467;-81
2021/06/06 08:11:45;;;;;;;11.90;5.38;;;;;;;;;;5033953;28;20471;-80
2021/06/06 08:14:11;;;;;;;10.55;5.25;;;;;;;;;;5029346;28;20022;-81
2021/06/06 08:16:37;;;;;;;9.63;5.28;;;;;;;;;;5027327;28;20036;-83
2021/06/06 08:19:05;;;;;;;10.90;5.78;;;;;;;;;;5032926;28;20045;-79
2021/06/06 08:21:38;;;;;;;15.10;6.55;;;;;;;;;;5031829;28;20028;-80
2021/06/06 08:24:04;;;;;;;11.65;6.20;;;;;;;;;;5028469;28;20029;-82
2021/06/06 08:26:30;;;;;;;9.95;6.57;;;;;;;;;;5031950;28;20056;-78
2021/06/06 08:28:57;;;;;;;10.27;5.57;;;;;;;;;;5029356;28;20045;-82
2021/06/06 08:31:25;;;;;;;8.20;5.68;;;;;;;;;;5032442;28;20041;-77
2021/06/06 08:33:51;;;;;;;14.27;5.30;;;;;;;;;;5032468;28;20033;-77
2021/06/06 08:36:21;;;;;;;11.52;5.30;;;;;;;;;;5030921;28;20192;-77
2021/06/06 08:38:48;;;;;;;23.60;5.53;;;;;;;;;;5030215;28;20079;-80
2021/06/06 08:41:22;;;;;;;8.57;5.30;;;;;;;;;;5048157;28;20033;-77
2021/06/06 08:43:53;;;;;;;8.80;5.03;;;;;;;;;;5032826;28;20487;-80
2021/06/06 08:46:22;;;;;;;12.18;5.10;;;;;;;;;;5032320;28;20044;-82
2021/06/06 08:48:48;;;;;;;9.80;4.88;;;;;;;;;;5023791;28;20075;-86
2021/06/06 08:51:17;;;;;;;11.43;5.38;;;;;;;;;;5024174;28;20029;-84
2021/06/06 08:53:51;;;;;;;12.23;5.60;;;;;;;;;;5029466;28;20101;-85
2021/06/06 08:56:22;;;;;;;12.10;5.57;;;;;;;;;;5029951;28;20033;-87
2021/06/06 08:58:52;;;;;;;8.35;5.43;;;;;;;;;;5033164;28;20071;-83
2021/06/06 09:01:18;;;;;;;11.40;6.20;;;;;;;;;;5030887;28;20394;-79
2021/06/06 09:03:44;;;;;;;12.70;6.30;;;;;;;;;;5028798;28;20455;-81
2021/06/06 09:06:18;;;;;;;15.30;6.15;;;;;;;;;;5025888;28;20040;-78
2021/06/06 09:08:44;;;;;;;12.23;5.90;;;;;;;;;;5029872;28;20104;-83
2021/06/06 09:11:11;;;;;;;11.52;5.68;;;;;;;;;;5034505;28;20025;-75
2021/06/06 09:13:37;;;;;;;12.77;5.90;;;;;;;;;;5039317;28;20029;-76
2021/06/06 09:16:13;;;;;;;13.45;6.10;;;;;;;;;;5028740;28;20052;-83
2021/06/06 09:18:46;;;;;;;11.23;5.30;;;;;;;;;;5027007;28;20041;-76
2021/06/06 09:21:19;;;;;;;7.93;4.97;;;;;;;;;;5031639;28;20029;-83
2021/06/06 09:23:46;;;;;;;17.05;4.78;;;;;;;;;;5034872;28;20028;-80
2021/06/06 09:26:21;;;;;;;7.43;4.35;;;;;;;;;;5030824;28;20040;-76
2021/06/06 09:28:48;;;;;;;6.30;4.22;;;;;;;;;;5033404;28;20065;-75
2021/06/06 09:31:22;;;;;;;7.35;4.38;;;;;;;;;;5031838;28;20034;-77
2021/06/06 09:33:48;;;;;;;11.57;4.90;;;;;;;;;;5031743;28;20037;-78
2021/06/06 09:36:19;;;;;;;7.63;4.30;;;;;;;;;;5031482;28;20032;-78
2021/06/06 09:38:46;;;;;;;18.63;4.47;;;;;;;;;;5031702;28;20090;-78
2021/06/06 09:41:33;;;;;;;14.85;4.90;;;;;;;;;;5029868;28;20057;-82
2021/06/06 09:44:14;;;;;;;10.93;4.53;;;;;;;;;;5030369;28;20025;-80
2021/06/06 09:46:42;;;;;;;13.05;4.13;;;;;;;;;;5030149;28;20052;-80
2021/06/06 09:49:28;;;;;;;12.02;4.22;;;;;;;;;;5030245;28;20021;-82
2021/06/06 09:51:56;;;;;;;7.25;4.80;;;;;;;;;;5030247;28;20028;-81
2021/06/06 09:54:33;;;;;;;8.50;4.65;;;;;;;;;;5031566;28;20065;-75
2021/06/06 09:57:01;;;;;;;8.57;5.28;;;;;;;;;;5027263;28;20021;-79
2021/06/06 09:59:29;;;;;;;9.98;5.13;;;;;;;;;;5029131;28;20499;-81
2021/06/06 10:02:21;;;;;;;6.88;5.10;;;;;;;;;;5029923;28;20034;-77
2021/06/06 10:04:58;;;;;;;6.78;5.15;;;;;;;;;;5027497;28;20029;-80
2021/06/06 10:07:29;;;;;;;9.35;4.70;;;;;;;;;;5029693;28;20041;-77
2021/06/06 10:09:56;;;;;;;6.65;4.60;;;;;;;;;;5028881;28;20036;-77
2021/06/06 10:12:23;;;;;;;9.45;5.15;;;;;;;;;;5028026;28;20025;-77
2021/06/06 10:14:51;;;;;;;9.93;5.65;;;;;;;;;;5017778;28;20548;-77
2021/06/06 10:17:20;;;;;;;17.63;5.93;;;;;;;;;;5034490;28;20037;-77
2021/06/06 10:19:55;;;;;;;20.63;7.03;;;;;;;;;;5036064;28;20038;-77
2021/06/06 10:22:24;;;;;;;19.67;11.73;;;;;;;;;;5046437;28;20033;-77
2021/06/06 10:24:58;;;;;;;23.40;13.50;;;;;;;;;;5038991;28;20092;-76
2021/06/06 10:27:38;;;;;;;35.10;14.52;;;;;;;;;;5054049;28;20041;-76
2021/06/06 10:30:07;;;;;;;42.13;21.13;;;;;;;;;;5043961;28;20046;-76
2021/06/06 10:32:38;;;;;;;32.00;18.27;;;;;;;;;;5045066;28;20038;-82
2021/06/06 10:35:12;;;;;;;27.80;17.73;;;;;;;;;;5030250;28;20037;-82
2021/06/06 10:37:40;;;;;;;22.23;13.48;;;;;;;;;;5040530;28;20132;-78
2021/06/06 10:40:32;;;;;;;28.48;12.23;;;;;;;;;;5042218;28;20037;-77
2021/06/06 10:43:06;;;;;;;16.55;10.18;;;;;;;;;;5054441;28;20038;-77
2021/06/06 10:45:36;;;;;;;17.65;10.63;;;;;;;;;;5049200;28;20433;-77
2021/06/06 10:48:02;;;;;;;16.05;11.20;;;;;;;;;;5055200;28;20041;-79
2021/06/06 10:50:51;;;;;;;11.38;9.07;;;;;;;;;;5058490;28;20048;-76
2021/06/06 10:53:26;;;;;;;12.02;9.07;;;;;;;;;;5057131;28;20025;-77
2021/06/06 10:56:11;;;;;;;11.00;9.35;;;;;;;;;;5037801;28;20037;-77
2021/06/06 10:58:54;;;;;;;11.15;9.60;;;;;;;;;;5043947;28;20057;-77
2021/06/06 11:04:18;;;;;;;12.07;10.13;;;;;;;;;;3343174;26;20055;-81
2021/06/06 11:06:47;;;;;;;10.75;8.68;;;;;;;;;;5071746;28;20039;-77
2021/06/06 11:09:23;;;;;;;15.48;9.32;;;;;;;;;;5071951;28;20125;-79
2021/06/06 11:12:11;;;;;;;12.25;9.30;;;;;;;;;;5072445;28;20065;-80
2021/06/06 11:14:48;;;;;;;11.70;9.50;;;;;;;;;;5070203;28;20021;-80
2021/06/06 11:17:29;;;;;;;22.02;13.02;;;;;;;;;;5070064;28;20024;-80
2021/06/06 11:19:56;;;;;;;14.70;11.68;;;;;;;;;;5070914;28;20370;-78
2021/06/06 11:22:30;;;;;;;24.00;14.50;;;;;;;;;;5071769;28;20012;-78
2021/06/06 11:24:56;;;;;;;12.85;10.90;;;;;;;;;;5070406;28;20481;-77
2021/06/06 11:27:29;;;;;;;14.25;11.38;;;;;;;;;;5071085;28;20516;-81
2021/06/06 11:30:05;;;;;;;22.67;13.38;;;;;;;;;;5051390;28;20031;-84
2021/06/06 11:32:34;;;;;;;18.83;13.20;;;;;;;;;;5040794;28;20100;-77
2021/06/06 11:35:06;;;;;;;15.63;12.73;;;;;;;;;;5043719;28;20545;-76
2021/06/06 11:37:41;;;;;;;15.55;13.27;;;;;;;;;;5041260;28;20055;-76
2021/06/06 11:40:10;;;;;;;18.20;13.70;;;;;;;;;;5044027;28;20375;-79
2021/06/06 11:42:38;;;;;;;17.90;14.52;;;;;;;;;;5051774;28;20028;-77
2021/06/06 11:45:12;;;;;;;18.77;15.68;;;;;;;;;;5056198;28;20118;-75
2021/06/06 11:47:43;;;;;;;23.70;19.20;;;;;;;;;;5052110;28;20043;-85
2021/06/06 11:50:20;;;;;;;22.63;20.23;;;;;;;;;;5036590;28;20021;-85
2021/06/06 11:52:55;;;;;;;24.25;21.55;;;;;;;;;;5043195;28;20021;-77
2021/06/06 11:55:22;;;;;;;37.17;28.23;;;;;;;;;;5052532;28;20021;-80
2021/06/06 11:57:53;;;;;;;23.02;19.42;;;;;;;;;;5047701;28;20018;-79
2021/06/06 12:00:25;;;;;;;22.95;19.65;;;;;;;;;;5047481;28;20036;-73
2021/06/06 12:02:54;;;;;;;27.95;19.77;;;;;;;;;;5049718;28;20059;-76
2021/06/06 12:05:20;;;;;;;22.90;20.08;;;;;;;;;;5050612;28;20025;-75
2021/06/06 12:07:46;;;;;;;23.88;20.13;;;;;;;;;;5052668;28;20040;-77
2021/06/06 12:10:33;;;;;;;29.63;20.55;;;;;;;;;;5047685;28;20025;-88
2021/06/06 12:13:02;;;;;;;24.08;17.98;;;;;;;;;;5051789;28;20055;-85
2021/06/06 12:15:29;;;;;;;30.83;19.10;;;;;;;;;;5052478;28;20088;-89
2021/06/06 12:18:13;;;;;;;23.17;17.75;;;;;;;;;;5035549;28;20120;-84
2021/06/06 12:20:52;;;;;;;21.58;16.33;;;;;;;;;;5047106;28;20036;-85
2021/06/06 12:23:23;;;;;;;19.10;17.20;;;;;;;;;;5033465;28;20112;-82
2021/06/06 12:25:49;;;;;;;23.35;17.98;;;;;;;;;;5052414;28;20054;-85
2021/06/06 12:28:22;;;;;;;22.25;18.80;;;;;;;;;;5038327;28;20035;-82
2021/06/06 12:30:53;;;;;;;20.50;18.20;;;;;;;;;;5034927;28;20029;-79
2021/06/06 12:33:36;;;;;;;28.02;20.23;;;;;;;;;;5037208;28;20063;-89
2021/06/06 12:36:27;;;;;;;23.80;20.70;;;;;;;;;;5057467;28;20037;-86
2021/06/06 12:38:58;;;;;;;21.30;19.05;;;;;;;;;;5057330;28;20024;-80
2021/06/06 12:41:24;;;;;;;22.95;20.48;;;;;;;;;;5041731;28;20035;-77
2021/06/06 12:43:52;;;;;;;21.15;17.85;;;;;;;;;;5038118;28;20033;-76
2021/06/06 12:46:19;;;;;;;22.65;19.95;;;;;;;;;;5050224;28;20424;-76
2021/06/06 12:49:03;;;;;;;19.88;17.98;;;;;;;;;;5050969;28;20013;-75
2021/06/06 12:51:29;;;;;;;;;;;;;;;;;;5050764;28;20331;-74
2021/06/06 12:54:04;;;;;;;21.83;19.60;;;;;;;;;;5052337;28;19905;-75
2021/06/06 12:56:31;;;;;;;25.10;20.70;;;;;;;;;;5049781;28;20381;-74
2021/06/06 12:59:11;;;;;;;24.23;21.38;;;;;;;;;;5047931;28;20057;-77
2021/06/06 13:01:37;;;;;;;29.08;23.95;;;;;;;;;;5052012;28;20065;-75
2021/06/06 13:04:11;;;;;;;29.00;25.95;;;;;;;;;;5050016;28;20053;-74
2021/06/06 13:06:39;;;;;;;27.38;24.48;;;;;;;;;;5049324;28;20056;-74
2021/06/06 13:09:10;;;;;;;28.25;24.45;;;;;;;;;;5050220;28;20028;-73
2021/06/06 13:11:37;;;;;;;29.23;24.10;;;;;;;;;;5049514;28;20071;-74
2021/06/06 13:14:17;;;;;;;30.77;23.85;;;;;;;;;;5050000;28;20073;-74
2021/06/06 13:16:53;;;;;;;25.15;20.33;;;;;;;;;;5046059;28;20406;-74
2021/06/06 13:19:21;;;;;;;27.75;21.63;;;;;;;;;;5049559;28;20479;-74
2021/06/06 13:21:50;;;;;;;27.20;24.35;;;;;;;;;;5049799;28;20075;-74
2021/06/06 13:24:29;;;;;;;27.27;23.13;;;;;;;;;;5048904;28;20096;-75
2021/06/06 13:26:57;;;;;;;25.60;21.65;;;;;;;;;;5044394;28;20025;-74
2021/06/06 13:29:37;;;;;;;23.42;20.42;;;;;;;;;;5051509;28;20017;-74
2021/06/06 13:32:12;;;;;;;24.02;20.15;;;;;;;;;;5041646;28;20021;-74
2021/06/06 13:34:38;;;;;;;23.65;20.27;;;;;;;;;;5046197;28;20033;-73
2021/06/06 13:37:04;;;;;;;21.02;18.80;;;;;;;;;;5053447;28;20029;-74
2021/06/06 13:39:32;;;;;;;21.17;18.92;;;;;;;;;;5049267;28;20490;-73
2021/06/06 13:41:59;;;;;;;25.65;20.00;;;;;;;;;;5049617;28;20035;-74
2021/06/06 13:44:26;;;;;;;20.95;17.20;;;;;;;;;;5050027;28;20025;-74
2021/06/06 13:47:04;;;;;;;23.05;19.05;;;;;;;;;;5044873;28;20035;-74
2021/06/06 13:49:31;;;;;;;21.40;19.17;;;;;;;;;;5046583;28;20017;-74
2021/06/06 13:51:58;;;;;;;21.15;18.70;;;;;;;;;;5050857;28;20520;-74
2021/06/06 13:54:24;;;;;;;23.45;19.20;;;;;;;;;;5050240;28;20397;-74
2021/06/06 13:56:51;;;;;;;23.55;20.67;;;;;;;;;;5050217;28;20525;-75
2021/06/06 13:59:17;;;;;;;24.98;22.38;;;;;;;;;;5049206;28;20029;-75
2021/06/06 14:01:44;;;;;;;28.17;25.10;;;;;;;;;;5051320;28;20106;-74
2021/06/06 14:04:11;;;;;;;25.13;22.42;;;;;;;;;;5050228;28;20065;-75
2021/06/06 14:06:37;;;;;;;28.02;23.88;;;;;;;;;;5045277;28;20045;-75
2021/06/06 14:09:05;;;;;;;27.02;23.13;;;;;;;;;;5047272;28;20067;-73
2021/06/06 14:11:33;;;;;;;25.25;22.55;;;;;;;;;;5046294;28;20120;-73
2021/06/06 14:13:59;;;;;;;30.42;25.42;;;;;;;;;;5043999;28;20017;-73
2021/06/06 14:16:26;;;;;;;30.25;23.95;;;;;;;;;;5047427;28;20025;-73
2021/06/06 14:18:55;;;;;;;27.33;24.25;;;;;;;;;;5031699;28;20048;-74
2021/06/06 14:21:22;;;;;;;30.58;27.50;;;;;;;;;;5050131;28;20021;-76
2021/06/06 14:23:50;;;;;;;28.98;26.02;;;;;;;;;;5051776;28;20013;-75
2021/06/06 14:26:16;;;;;;;35.70;29.92;;;;;;;;;;5057386;28;20050;-74
2021/06/06 14:28:42;;;;;;;36.30;30.40;;;;;;;;;;5048714;28;20040;-74
2021/06/06 14:31:08;;;;;;;30.08;26.42;;;;;;;;;;5050908;28;20033;-75
2021/06/06 14:33:35;;;;;;;30.40;27.15;;;;;;;;;;5047560;28;20916;-73
2021/06/06 14:36:04;;;;;;;28.60;25.58;;;;;;;;;;5047332;28;20025;-75
2021/06/06 14:38:30;;;;;;;25.30;22.60;;;;;;;;;;5049884;28;20099;-75
2021/06/06 14:40:58;;;;;;;29.20;25.48;;;;;;;;;;5051878;28;20387;-74
2021/06/06 14:43:24;;;;;;;27.38;24.48;;;;;;;;;;5061593;28;20025;-75
2021/06/06 14:45:51;;;;;;;30.55;23.70;;;;;;;;;;5051142;28;20057;-74
2021/06/06 14:48:19;;;;;;;24.38;21.85;;;;;;;;;;5049045;28;20088;-78